createdAt,value
2023-04-18T00:00:13.402Z,95.72
2023-04-18T00:01:15.176Z,95.19
2023-04-18T00:02:19.681Z,94.91
2023-04-18T00:03:21.938Z,95.22
2023-04-18T00:04:24.135Z,94.55
2023-04-18T00:05:26.330Z,94.65
2023-04-18T00:06:30.073Z,94.63
2023-04-18T00:07:31.845Z,94.74
2023-04-18T00:08:34.368Z,94.60
2023-04-18T00:09:36.250Z,94.95
2023-04-18T00:10:38.005Z,94.60
2023-04-18T00:11:39.816Z,94.28
2023-04-18T00:12:41.559Z,94.40
2023-04-18T00:13:43.372Z,93.96
2023-04-18T00:14:45.050Z,93.67
2023-04-18T00:15:46.819Z,93.58
2023-04-18T00:16:48.563Z,94.03
2023-04-18T00:17:50.317Z,93.43
2023-04-18T00:18:52.830Z,92.89
2023-04-18T00:19:56.451Z,92.75
2023-04-18T00:20:58.190Z,92.78
2023-04-18T00:22:00.060Z,92.97
2023-04-18T00:23:01.973Z,93.37
2023-04-18T00:24:03.729Z,92.91
2023-04-18T00:25:05.882Z,93.35
2023-04-18T00:26:07.567Z,93.76
2023-04-18T00:27:09.282Z,93.64
2023-04-18T00:28:11.043Z,93.73
2023-04-18T00:29:12.765Z,94.05
2023-04-18T00:30:14.877Z,94.12
2023-04-18T00:31:16.670Z,94.71
2023-04-18T00:32:18.564Z,95.08
2023-04-18T00:33:20.342Z,95.08
2023-04-18T00:34:22.028Z,95.46
2023-04-18T00:35:23.840Z,95.21
2023-04-18T00:36:27.199Z,95.60
2023-04-18T00:37:29.671Z,95.60
2023-04-18T00:38:31.421Z,96.09
2023-04-18T00:39:35.322Z,95.53
2023-04-18T00:40:37.951Z,96.08
2023-04-18T00:41:39.696Z,95.74
2023-04-18T00:42:41.438Z,95.43
2023-04-18T00:43:43.212Z,95.44
2023-04-18T00:44:44.923Z,95.18
2023-04-18T00:45:46.615Z,94.83
2023-04-18T00:46:48.462Z,95.24
2023-04-18T00:47:50.230Z,95.16
2023-04-18T00:48:52.084Z,95.58
2023-04-18T00:49:54.596Z,95.71
2023-04-18T00:50:56.863Z,95.79
2023-04-18T00:51:59.421Z,96.12
2023-04-18T00:53:01.284Z,95.72
2023-04-18T00:54:07.852Z,96.26
2023-04-18T00:55:10.278Z,95.12
2023-04-18T00:56:12.027Z,95.59
2023-04-18T00:57:13.858Z,95.18
2023-04-18T00:58:16.024Z,95.18
2023-04-18T00:59:17.969Z,95.04
2023-04-18T01:00:19.840Z,95.19
2023-04-18T01:01:22.252Z,94.66
2023-04-18T01:02:26.395Z,95.23
2023-04-18T01:03:28.558Z,95.09
2023-04-18T01:04:32.633Z,94.65
2023-04-18T01:05:36.366Z,93.80
2023-04-18T01:06:38.258Z,93.72
2023-04-18T01:07:42.934Z,93.74
2023-04-18T01:08:45.763Z,93.68
2023-04-18T01:09:47.920Z,92.63
2023-04-18T01:10:50.063Z,92.94
2023-04-18T01:11:51.923Z,92.93
2023-04-18T01:13:12.785Z,92.85
2023-04-18T01:14:14.788Z,92.89
2023-04-18T01:15:16.827Z,92.29
2023-04-18T01:16:18.571Z,92.85
2023-04-18T01:17:20.614Z,92.45
2023-04-18T01:18:22.696Z,92.64
2023-04-18T01:19:24.691Z,92.30
2023-04-18T01:20:26.540Z,92.31
2023-04-18T01:21:31.408Z,91.94
2023-04-18T01:22:33.609Z,91.48
2023-04-18T01:23:35.696Z,92.40
2023-04-18T01:24:37.444Z,92.12
2023-04-18T01:25:39.482Z,91.61
2023-04-18T01:26:43.707Z,91.42
2023-04-18T01:27:45.412Z,91.50
2023-04-18T01:28:47.122Z,92.22
2023-04-18T01:29:48.810Z,91.88
2023-04-18T01:30:50.603Z,91.66
2023-04-18T01:31:52.465Z,91.74
2023-04-18T01:32:54.542Z,92.10
2023-04-18T01:33:56.402Z,92.23
2023-04-18T01:34:58.096Z,91.83
2023-04-18T01:35:59.797Z,92.09
2023-04-18T01:37:01.582Z,92.54
2023-04-18T01:38:03.656Z,92.21
2023-04-18T01:39:05.560Z,93.14
2023-04-18T01:40:07.952Z,93.83
2023-04-18T01:41:09.676Z,93.81
2023-04-18T01:42:11.452Z,92.99
2023-04-18T01:43:13.211Z,92.96
2023-04-18T01:44:15.073Z,92.42
2023-04-18T01:45:17.663Z,92.36
2023-04-18T01:46:19.813Z,92.15
2023-04-18T01:47:21.599Z,91.47
2023-04-18T01:48:23.322Z,91.86
2023-04-18T01:49:25.020Z,91.64
2023-04-18T01:50:26.742Z,91.81
2023-04-18T01:51:28.527Z,90.64
2023-04-18T01:52:30.459Z,90.87
2023-04-18T01:53:32.407Z,91.15
2023-04-18T01:54:34.091Z,90.59
2023-04-18T01:55:35.971Z,90.22
2023-04-18T01:56:37.682Z,90.56
2023-04-18T01:57:39.360Z,90.68
2023-04-18T01:58:41.822Z,89.85
2023-04-18T01:59:43.550Z,89.67
2023-04-18T02:00:45.503Z,90.07
2023-04-18T02:01:47.256Z,90.76
2023-04-18T02:02:50.557Z,91.17
2023-04-18T02:03:52.940Z,90.97
2023-04-18T02:04:54.877Z,90.91
2023-04-18T02:05:56.610Z,91.28
2023-04-18T02:06:58.302Z,91.21
2023-04-18T02:07:59.991Z,90.79
2023-04-18T02:09:01.788Z,90.59
2023-04-18T02:10:04.039Z,90.91
2023-04-18T02:11:06.049Z,90.83
2023-04-18T02:12:07.809Z,90.88
2023-04-18T02:13:09.745Z,90.14
2023-04-18T02:14:11.865Z,91.00
2023-04-18T02:15:13.772Z,90.17
2023-04-18T02:16:15.539Z,89.85
2023-04-18T02:17:17.327Z,89.02
2023-04-18T02:18:19.034Z,89.20
2023-04-18T02:19:20.776Z,88.32
2023-04-18T02:20:22.780Z,87.30
2023-04-18T02:21:24.561Z,87.63
2023-04-18T02:22:26.264Z,86.35
2023-04-18T02:23:27.944Z,86.70
2023-04-18T02:24:29.690Z,86.22
2023-04-18T02:25:31.431Z,86.47
2023-04-18T02:26:33.149Z,86.74
2023-04-18T02:27:34.893Z,86.08
2023-04-18T02:28:39.251Z,85.41
2023-04-18T02:29:41.096Z,85.15
2023-04-18T02:30:42.831Z,86.11
2023-04-18T02:31:44.609Z,85.76
2023-04-18T02:32:46.982Z,85.32
2023-04-18T02:33:48.776Z,84.72
2023-04-18T02:34:50.576Z,84.72
2023-04-18T02:35:52.322Z,83.91
2023-04-18T02:36:54.001Z,84.19
2023-04-18T02:37:55.694Z,84.05
2023-04-18T02:38:57.481Z,83.24
2023-04-18T02:39:59.259Z,83.45
2023-04-18T02:41:01.079Z,82.99
2023-04-18T02:42:02.794Z,82.79
2023-04-18T02:43:04.624Z,83.00
2023-04-18T02:44:07.187Z,83.25
2023-04-18T02:45:09.872Z,81.89
2023-04-18T02:46:12.000Z,82.32
2023-04-18T02:47:13.757Z,82.10
2023-04-18T02:48:15.686Z,82.24
2023-04-18T02:49:17.398Z,82.75
2023-04-18T02:50:19.264Z,83.29
2023-04-18T02:51:20.988Z,82.23
2023-04-18T02:52:22.984Z,82.40
2023-04-18T02:53:25.209Z,82.89
2023-04-18T02:54:26.970Z,81.88
2023-04-18T02:55:28.719Z,83.00
2023-04-18T02:56:30.412Z,83.53
2023-04-18T02:57:32.142Z,83.46
2023-04-18T02:58:35.954Z,83.17
2023-04-18T02:59:37.638Z,84.57
2023-04-18T03:00:39.366Z,84.08
2023-04-18T03:01:41.143Z,84.06
2023-04-18T03:02:43.016Z,83.78
2023-04-18T03:03:44.826Z,82.81
2023-04-18T03:04:46.588Z,82.12
2023-04-18T03:05:48.617Z,82.03
2023-04-18T03:06:50.402Z,81.75
2023-04-18T03:07:52.168Z,82.24
2023-04-18T03:08:55.297Z,82.12
2023-04-18T03:09:57.030Z,82.50
2023-04-18T03:10:58.811Z,81.93
2023-04-18T03:12:02.260Z,81.89
2023-04-18T03:13:03.994Z,82.32
2023-04-18T03:14:05.768Z,82.24
2023-04-18T03:15:07.948Z,82.06
2023-04-18T03:16:09.735Z,81.57
2023-04-18T03:17:11.698Z,81.65
2023-04-18T03:18:13.380Z,81.24
2023-04-18T03:19:15.116Z,81.34
2023-04-18T03:20:17.838Z,81.46
2023-04-18T03:21:19.616Z,80.23
2023-04-18T03:22:21.424Z,81.16
2023-04-18T03:23:23.144Z,80.90
2023-04-18T03:24:24.850Z,81.39
2023-04-18T03:25:26.560Z,81.37
2023-04-18T03:26:28.627Z,81.56
2023-04-18T03:27:30.437Z,81.69
2023-04-18T03:28:32.180Z,81.24
2023-04-18T03:29:34.105Z,82.01
2023-04-18T03:30:36.023Z,82.25
2023-04-18T03:31:37.812Z,82.76
2023-04-18T03:32:39.577Z,82.39
2023-04-18T03:33:42.536Z,82.66
2023-04-18T03:34:44.223Z,83.05
2023-04-18T03:35:46.667Z,82.75
2023-04-18T03:36:48.535Z,82.27
2023-04-18T03:37:50.541Z,82.92
2023-04-18T03:38:52.276Z,82.87
2023-04-18T03:39:54.109Z,82.85
2023-04-18T03:40:55.824Z,83.07
2023-04-18T03:41:57.566Z,82.58
2023-04-18T03:43:00.137Z,83.16
2023-04-18T03:44:01.848Z,83.03
2023-04-18T03:45:03.851Z,83.04
2023-04-18T03:46:05.703Z,82.34
2023-04-18T03:47:07.679Z,82.76
2023-04-18T03:48:09.366Z,82.96
2023-04-18T03:49:11.093Z,83.99
2023-04-18T03:50:12.804Z,83.73
2023-04-18T03:51:14.858Z,83.18
2023-04-18T03:52:16.623Z,83.40
2023-04-18T03:53:18.341Z,83.74
2023-04-18T03:54:20.032Z,84.08
2023-04-18T03:55:22.032Z,84.20
2023-04-18T03:56:23.796Z,84.03
2023-04-18T03:57:25.607Z,84.59
2023-04-18T03:58:27.317Z,84.38
2023-04-18T03:59:29.655Z,84.20
2023-04-18T04:00:31.496Z,84.04
2023-04-18T04:01:33.800Z,84.47
2023-04-18T04:02:35.788Z,84.76
2023-04-18T04:03:37.689Z,84.75
2023-04-18T04:04:39.566Z,85.11
2023-04-18T04:05:41.476Z,84.62
2023-04-18T04:06:43.299Z,85.06
2023-04-18T04:07:45.224Z,85.49
2023-04-18T04:08:46.927Z,85.59
2023-04-18T04:09:48.710Z,85.13
2023-04-18T04:10:50.650Z,84.79
2023-04-18T04:11:52.387Z,84.88
2023-04-18T04:12:54.094Z,84.93
2023-04-18T04:13:55.829Z,85.04
2023-04-18T04:14:57.606Z,85.19
2023-04-18T04:15:59.469Z,84.45
2023-04-18T04:17:01.372Z,84.97
2023-04-18T04:18:03.116Z,84.43
2023-04-18T04:19:05.036Z,85.15
2023-04-18T04:20:07.569Z,85.56
2023-04-18T04:21:09.282Z,86.58
2023-04-18T04:22:11.285Z,86.84
2023-04-18T04:23:12.982Z,87.07
2023-04-18T04:24:14.912Z,87.16
2023-04-18T04:25:17.530Z,87.51
2023-04-18T04:26:19.273Z,88.11
2023-04-18T04:27:20.986Z,88.94
2023-04-18T04:28:23.372Z,89.40
2023-04-18T04:29:25.122Z,89.55
2023-04-18T04:30:27.227Z,91.01
2023-04-18T04:31:29.055Z,91.27
2023-04-18T04:32:30.909Z,91.67
2023-04-18T04:33:33.423Z,92.02
2023-04-18T04:34:35.906Z,91.70
2023-04-18T04:35:40.438Z,92.29
2023-04-18T04:36:43.253Z,90.24
2023-04-18T04:37:45.282Z,89.64
2023-04-18T04:38:47.414Z,88.47
2023-04-18T04:39:49.230Z,87.65
2023-04-18T04:40:51.563Z,85.87
2023-04-18T04:41:53.665Z,84.85
2023-04-18T04:42:56.218Z,84.78
2023-04-18T04:43:57.908Z,85.17
2023-04-18T04:44:59.664Z,84.80
2023-04-18T04:46:03.967Z,84.71
2023-04-18T04:47:05.852Z,84.87
2023-04-18T04:48:08.565Z,85.25
2023-04-18T04:49:13.544Z,85.89
2023-04-18T04:50:15.940Z,86.32
2023-04-18T04:51:17.679Z,86.76
2023-04-18T04:52:19.783Z,86.64
2023-04-18T04:53:22.157Z,86.25
2023-04-18T04:54:23.917Z,86.26
2023-04-18T04:55:25.656Z,86.81
2023-04-18T04:56:27.378Z,86.25
2023-04-18T04:57:32.215Z,85.80
2023-04-18T04:58:34.380Z,85.38
2023-04-18T04:59:36.327Z,86.00
2023-04-18T05:00:38.048Z,86.17
2023-04-18T05:01:48.205Z,87.34
2023-04-18T05:02:53.688Z,87.25
2023-04-18T05:03:55.862Z,87.61
2023-04-18T05:04:57.626Z,88.10
2023-04-18T05:06:00.154Z,88.54
2023-04-18T05:07:01.994Z,88.36
2023-04-18T05:08:04.130Z,88.93
2023-04-18T05:09:05.824Z,88.45
2023-04-18T05:10:07.886Z,88.50
2023-04-18T05:11:09.587Z,88.29
2023-04-18T05:12:11.349Z,89.33
2023-04-18T05:13:13.168Z,88.66
2023-04-18T05:14:16.112Z,88.35
2023-04-18T05:15:18.617Z,88.34
2023-04-18T05:16:20.967Z,88.69
2023-04-18T05:17:23.032Z,88.65
2023-04-18T05:18:24.868Z,88.57
2023-04-18T05:19:26.590Z,88.36
2023-04-18T05:20:28.411Z,88.59
2023-04-18T05:21:30.204Z,87.54
2023-04-18T05:22:32.543Z,87.75
2023-04-18T05:23:37.635Z,86.52
2023-04-18T05:24:39.670Z,86.38
2023-04-18T05:25:41.629Z,86.43
2023-04-18T05:26:43.509Z,87.09
2023-04-18T05:27:47.165Z,86.06
2023-04-18T05:28:49.272Z,86.56
2023-04-18T05:29:51.064Z,86.17
2023-04-18T05:30:52.885Z,87.00
2023-04-18T05:32:00.324Z,86.89
2023-04-18T05:33:02.420Z,86.75
2023-04-18T05:34:04.278Z,86.06
2023-04-18T05:35:07.210Z,85.69
2023-04-18T05:36:09.093Z,85.31
2023-04-18T05:37:10.921Z,84.70
2023-04-18T05:38:12.675Z,84.75
2023-04-18T05:39:14.422Z,85.05
2023-04-18T05:40:16.261Z,84.57
2023-04-18T05:41:17.963Z,85.15
2023-04-18T05:42:19.670Z,84.72
2023-04-18T05:43:22.164Z,83.84
2023-04-18T05:44:24.453Z,83.62
2023-04-18T05:45:26.267Z,84.06
2023-04-18T05:46:28.048Z,84.13
2023-04-18T05:47:30.508Z,85.24
2023-04-18T05:48:32.263Z,84.57
2023-04-18T05:49:33.994Z,84.12
2023-04-18T05:50:35.712Z,84.19
2023-04-18T05:51:37.591Z,84.09
2023-04-18T05:52:39.344Z,82.63
2023-04-18T05:53:41.062Z,83.07
2023-04-18T05:54:42.779Z,83.41
2023-04-18T05:55:46.593Z,82.89
2023-04-18T05:56:48.458Z,82.77
2023-04-18T05:57:50.177Z,82.31
2023-04-18T05:58:52.049Z,82.96
2023-04-18T05:59:53.764Z,82.88
2023-04-18T06:00:57.971Z,82.97
2023-04-18T06:01:59.695Z,82.33
2023-04-18T06:03:01.638Z,82.72
2023-04-18T06:04:03.788Z,82.15
2023-04-18T06:05:06.627Z,82.52
2023-04-18T06:06:08.765Z,83.15
2023-04-18T06:07:10.868Z,81.90
2023-04-18T06:08:12.669Z,81.24
2023-04-18T06:09:14.428Z,81.53
2023-04-18T06:10:16.371Z,81.15
2023-04-18T06:11:20.262Z,80.60
2023-04-18T06:12:22.020Z,81.15
2023-04-18T06:13:23.796Z,81.10
2023-04-18T06:14:26.256Z,80.91
2023-04-18T06:15:28.111Z,81.43
2023-04-18T06:16:29.935Z,81.50
2023-04-18T06:17:31.816Z,81.00
2023-04-18T06:18:34.176Z,81.86
2023-04-18T06:19:36.239Z,81.91
2023-04-18T06:20:38.019Z,81.32
2023-04-18T06:21:42.111Z,81.19
2023-04-18T06:22:43.840Z,81.80
2023-04-18T06:23:45.568Z,82.80
2023-04-18T06:24:47.302Z,81.77
2023-04-18T06:25:49.058Z,82.44
2023-04-18T06:26:50.947Z,82.46
2023-04-18T06:27:52.696Z,81.72
2023-04-18T06:28:54.474Z,82.14
2023-04-18T06:29:56.540Z,82.35
2023-04-18T06:30:58.268Z,81.15
2023-04-18T06:32:00.326Z,81.15
2023-04-18T06:33:02.274Z,82.05
2023-04-18T06:34:04.056Z,81.36
2023-04-18T06:35:06.349Z,81.13
2023-04-18T06:36:09.069Z,80.20
2023-04-18T06:37:11.705Z,79.95
2023-04-18T06:38:13.636Z,80.40
2023-04-18T06:39:15.380Z,80.01
2023-04-18T06:40:17.299Z,79.26
2023-04-18T06:41:19.080Z,78.88
2023-04-18T06:42:22.468Z,77.92
2023-04-18T06:43:24.630Z,78.32
2023-04-18T06:44:26.441Z,78.94
2023-04-18T06:45:30.811Z,79.77
2023-04-18T06:46:33.286Z,79.81
2023-04-18T06:47:35.094Z,79.95
2023-04-18T06:48:39.840Z,79.52
2023-04-18T06:49:41.534Z,81.77
2023-04-18T06:50:44.010Z,80.99
2023-04-18T06:51:46.171Z,80.49
2023-04-18T06:52:47.902Z,81.13
2023-04-18T06:53:52.837Z,81.61
2023-04-18T06:54:54.981Z,82.38
2023-04-18T06:55:56.810Z,81.40
2023-04-18T06:56:59.246Z,80.19
2023-04-18T06:58:00.944Z,80.37
2023-04-18T06:59:02.686Z,79.72
2023-04-18T07:00:05.639Z,80.31
2023-04-18T07:01:07.543Z,81.10
2023-04-18T07:02:09.387Z,81.97
2023-04-18T07:03:13.583Z,80.86
2023-04-18T07:04:15.861Z,79.96
2023-04-18T07:05:17.948Z,80.62
2023-04-18T07:06:19.674Z,80.31
2023-04-18T07:07:21.516Z,80.18
2023-04-18T07:08:23.261Z,80.19
2023-04-18T07:09:25.043Z,78.83
2023-04-18T07:10:26.746Z,76.60
2023-04-18T07:11:28.923Z,77.40
2023-04-18T07:12:30.664Z,77.79
2023-04-18T07:13:32.440Z,77.17
2023-04-18T07:14:34.400Z,75.85
2023-04-18T07:15:36.356Z,76.33
2023-04-18T07:16:38.618Z,76.55
2023-04-18T07:17:40.579Z,76.12
2023-04-18T07:18:42.289Z,75.72
2023-04-18T07:19:44.580Z,73.92
2023-04-18T07:20:46.323Z,70.83
2023-04-18T07:21:48.090Z,69.75
2023-04-18T07:22:49.789Z,71.39
2023-04-18T07:23:51.547Z,70.45
2023-04-18T07:24:53.293Z,72.00
2023-04-18T07:25:55.129Z,72.00
2023-04-18T07:26:57.075Z,70.17
2023-04-18T07:27:58.806Z,75.66
2023-04-18T07:29:00.684Z,73.26
2023-04-18T07:30:05.639Z,71.25
2023-04-18T07:31:11.727Z,74.93
2023-04-18T07:32:13.635Z,75.83
2023-04-18T07:33:15.399Z,73.49
2023-04-18T07:34:17.988Z,70.94
2023-04-18T07:35:19.736Z,65.58
2023-04-18T07:36:21.817Z,64.11
2023-04-18T07:37:23.772Z,63.46
2023-04-18T07:38:25.696Z,68.52
2023-04-18T07:39:27.504Z,67.26
2023-04-18T07:40:29.236Z,64.31
2023-04-18T07:41:31.287Z,63.66
2023-04-18T07:42:33.139Z,63.64
2023-04-18T07:43:34.950Z,63.68
2023-04-18T07:44:39.698Z,61.85
2023-04-18T07:45:43.422Z,59.73
2023-04-18T07:46:45.451Z,59.80
2023-04-18T07:47:47.250Z,58.58
2023-04-18T07:48:49.017Z,58.26
2023-04-18T07:49:50.977Z,58.56
2023-04-18T07:50:53.440Z,56.58
2023-04-18T07:51:56.488Z,55.93
2023-04-18T07:52:58.215Z,56.15
2023-04-18T07:53:59.937Z,57.12
2023-04-18T07:55:01.710Z,57.47
2023-04-18T07:56:03.485Z,57.88
2023-04-18T07:57:05.268Z,58.41
2023-04-18T07:58:06.978Z,57.80
2023-04-18T07:59:08.692Z,58.49
2023-04-18T08:00:12.604Z,59.82
2023-04-18T08:01:15.482Z,59.50
2023-04-18T08:02:17.241Z,59.10
2023-04-18T08:03:19.373Z,59.49
2023-04-18T08:04:21.608Z,59.67
2023-04-18T08:05:23.466Z,59.21
2023-04-18T08:06:26.466Z,56.85
2023-04-18T08:07:28.297Z,56.06
2023-04-18T08:08:30.060Z,55.25
2023-04-18T08:09:31.815Z,56.89
2023-04-18T08:10:34.264Z,56.24
2023-04-18T08:11:36.122Z,53.29
2023-04-18T08:12:37.991Z,53.59
2023-04-18T08:13:39.704Z,55.07
2023-04-18T08:14:41.848Z,54.46
2023-04-18T08:15:43.680Z,55.44
2023-04-18T08:16:46.673Z,55.17
2023-04-18T08:17:49.268Z,55.62
2023-04-18T08:18:51.050Z,55.25
2023-04-18T08:19:52.771Z,55.37
2023-04-18T08:20:54.517Z,54.15
2023-04-18T08:22:08.516Z,56.66
2023-04-18T08:23:12.775Z,55.19
2023-04-18T08:24:14.966Z,54.76
2023-04-18T08:25:17.094Z,54.70
2023-04-18T08:26:22.215Z,53.67
2023-04-18T08:27:23.941Z,54.33
2023-04-18T08:28:25.862Z,55.08
2023-04-18T08:29:27.604Z,54.61
2023-04-18T08:30:29.571Z,54.76
2023-04-18T08:31:31.885Z,54.07
2023-04-18T08:32:33.889Z,54.25
2023-04-18T08:33:35.841Z,54.77
2023-04-18T08:34:38.246Z,55.11
2023-04-18T08:35:40.064Z,54.94
2023-04-18T08:36:41.769Z,54.17
2023-04-18T08:39:14.655Z,53.82
2023-04-18T08:40:16.892Z,54.67
2023-04-18T08:41:22.122Z,55.74
2023-04-18T08:42:23.963Z,55.81
2023-04-18T08:43:25.608Z,55.24
2023-04-18T08:44:30.664Z,55.51
2023-04-18T08:45:33.479Z,56.21
2023-04-18T08:46:36.272Z,56.01
2023-04-18T08:47:37.935Z,56.22
2023-04-18T08:48:39.587Z,55.81
2023-04-18T08:49:41.224Z,56.49
2023-04-18T08:50:43.416Z,57.39
2023-04-18T08:51:47.480Z,57.89
2023-04-18T08:52:50.598Z,59.13
2023-04-18T08:53:53.169Z,59.82
2023-04-18T08:54:54.781Z,60.53
2023-04-18T08:55:57.345Z,61.22
2023-04-18T08:57:06.491Z,61.41
2023-04-18T08:58:08.138Z,61.93
2023-04-18T08:59:11.585Z,63.05
2023-04-18T09:00:14.003Z,64.04
2023-04-18T09:01:17.842Z,64.29
2023-04-18T09:02:22.383Z,65.19
2023-04-18T09:03:44.173Z,64.65
2023-04-18T09:04:49.321Z,65.72
2023-04-18T09:06:10.093Z,65.70
2023-04-18T09:07:17.868Z,65.40
2023-04-18T09:08:24.298Z,66.64
2023-04-18T09:09:27.605Z,67.09
2023-04-18T09:10:34.164Z,66.94
2023-04-18T09:11:35.742Z,66.89
2023-04-18T09:12:49.939Z,67.08
2023-04-18T09:13:53.217Z,67.30
2023-04-18T09:14:59.677Z,66.92
2023-04-18T09:16:01.220Z,67.54
2023-04-18T09:17:04.185Z,67.63
2023-04-18T09:18:10.403Z,67.79
2023-04-18T09:19:14.588Z,68.30
2023-04-18T09:20:30.767Z,68.53
2023-04-18T09:21:32.915Z,68.72
2023-04-18T09:22:52.181Z,69.50
2023-04-18T09:24:17.567Z,69.52
2023-04-18T09:25:43.244Z,69.42
2023-04-18T09:26:47.980Z,70.35
2023-04-18T09:27:49.637Z,69.65
2023-04-18T09:28:53.909Z,70.44
2023-04-18T09:29:57.375Z,71.18
2023-04-18T09:31:09.670Z,71.98
2023-04-18T09:32:11.528Z,72.71
2023-04-18T09:33:14.619Z,72.96
2023-04-18T09:34:25.154Z,72.56
2023-04-18T09:35:27.376Z,72.11
2023-04-18T09:36:29.233Z,71.91
2023-04-18T09:37:31.164Z,72.43
2023-04-18T09:38:44.876Z,71.26
2023-04-18T09:39:46.656Z,71.23
2023-04-18T09:41:08.052Z,70.64
2023-04-18T09:42:10.882Z,70.76
2023-04-18T09:43:19.912Z,69.76
2023-04-18T09:44:21.626Z,70.78
2023-04-18T09:45:24.963Z,70.71
2023-04-18T09:46:27.948Z,69.90
2023-04-18T09:47:30.847Z,70.18
2023-04-18T09:48:32.567Z,69.21
2023-04-18T09:49:34.806Z,69.33
2023-04-18T09:50:39.233Z,68.34
2023-04-18T09:51:42.258Z,69.57
2023-04-18T09:52:46.044Z,70.25
2023-04-18T09:53:48.156Z,69.62
2023-04-18T09:54:55.604Z,70.46
2023-04-18T09:55:57.992Z,71.20
2023-04-18T09:57:02.990Z,72.27
2023-04-18T09:58:05.997Z,72.76
2023-04-18T09:59:10.074Z,73.40
2023-04-18T10:00:17.514Z,73.52
2023-04-18T10:01:19.589Z,74.28
2023-04-18T10:02:23.208Z,74.85
2023-04-18T10:03:32.859Z,75.85
2023-04-18T10:04:35.089Z,76.41
2023-04-18T10:05:40.109Z,76.76
2023-04-18T10:06:44.572Z,77.03
2023-04-18T10:07:48.095Z,76.88
2023-04-18T10:08:52.026Z,77.83
2023-04-18T10:09:53.830Z,78.05
2023-04-18T10:10:58.006Z,77.54
2023-04-18T10:12:02.472Z,77.68
2023-04-18T10:13:06.295Z,77.76
2023-04-18T10:14:12.892Z,77.85
2023-04-18T10:15:16.144Z,78.15
2023-04-18T10:16:18.323Z,78.44
2023-04-18T10:17:20.459Z,78.90
2023-04-18T10:18:25.050Z,78.61
2023-04-18T10:19:28.554Z,78.14
2023-04-18T10:20:32.005Z,78.37
2023-04-18T10:21:34.541Z,78.89
2023-04-18T10:22:36.704Z,80.21
2023-04-18T10:23:40.004Z,80.15
2023-04-18T10:24:49.776Z,80.46
2023-04-18T10:25:51.910Z,80.46
2023-04-18T10:26:53.672Z,80.31
2023-04-18T10:27:57.309Z,80.58
2023-04-18T10:28:59.569Z,80.82
2023-04-18T10:30:01.306Z,81.83
2023-04-18T10:31:04.321Z,81.41
2023-04-18T10:32:07.147Z,81.40
2023-04-18T10:33:30.355Z,81.60
2023-04-18T10:34:33.381Z,81.95
2023-04-18T10:35:36.091Z,81.73
2023-04-18T10:36:57.736Z,81.59
2023-04-18T10:38:00.154Z,82.28
2023-04-18T10:39:23.389Z,81.38
2023-04-18T10:40:34.791Z,80.08
2023-04-18T10:41:50.576Z,79.49
2023-04-18T10:42:52.758Z,79.17
2023-04-18T10:44:15.815Z,78.56
2023-04-18T10:45:24.915Z,77.62
2023-04-18T10:46:32.589Z,77.83
2023-04-18T10:47:34.923Z,78.22
2023-04-18T10:48:39.326Z,79.44
2023-04-18T10:49:54.333Z,80.39
2023-04-18T10:51:20.729Z,78.21
2023-04-18T10:52:22.547Z,77.49
2023-04-18T10:53:24.332Z,78.17
2023-04-18T10:54:28.121Z,77.81
2023-04-18T10:55:31.369Z,77.53
2023-04-18T10:56:33.173Z,76.60
2023-04-18T10:57:43.036Z,75.86
2023-04-18T10:58:52.140Z,76.29
2023-04-18T10:59:54.959Z,77.77
2023-04-18T11:00:57.076Z,77.00
2023-04-18T11:02:26.434Z,77.79
2023-04-18T11:03:33.802Z,75.32
2023-04-18T11:04:36.067Z,75.23
2023-04-18T11:05:37.875Z,74.82
2023-04-18T11:06:58.509Z,74.38
2023-04-18T11:08:00.319Z,74.60
2023-04-18T11:09:13.792Z,74.67
2023-04-18T11:10:24.619Z,73.80
2023-04-18T11:11:26.413Z,71.21
2023-04-18T11:12:32.937Z,70.94
2023-04-18T11:13:36.977Z,71.70
2023-04-18T11:14:47.722Z,72.60
2023-04-18T11:15:49.411Z,73.00
2023-04-18T11:16:51.279Z,72.39
2023-04-18T11:18:02.849Z,71.95
2023-04-18T11:19:22.012Z,70.78
2023-04-18T11:20:24.009Z,71.94
2023-04-18T11:21:30.715Z,72.75
2023-04-18T11:22:32.828Z,72.13
2023-04-18T11:23:34.674Z,72.80
2023-04-18T11:24:36.928Z,73.73
2023-04-18T11:25:40.635Z,74.00
2023-04-18T11:26:44.594Z,73.51
2023-04-18T11:27:48.170Z,73.89
2023-04-18T11:28:59.181Z,73.03
2023-04-18T11:30:00.966Z,73.46
2023-04-18T11:31:03.189Z,73.17
2023-04-18T11:32:09.431Z,74.31
2023-04-18T11:33:12.650Z,74.42
2023-04-18T11:34:14.722Z,73.97
2023-04-18T11:35:16.645Z,74.53
2023-04-18T11:36:18.458Z,74.44
2023-04-18T11:37:20.945Z,73.15
2023-04-18T11:38:28.908Z,73.07
2023-04-18T11:39:34.854Z,73.60
2023-04-18T11:40:39.871Z,73.58
2023-04-18T11:41:41.997Z,72.81
2023-04-18T11:42:43.802Z,73.70
2023-04-18T11:43:46.651Z,72.98
2023-04-18T11:44:49.350Z,71.94
2023-04-18T11:45:59.939Z,72.48
2023-04-18T11:47:01.737Z,72.27
2023-04-18T11:48:03.585Z,72.03
2023-04-18T11:49:05.577Z,71.60
2023-04-18T11:50:08.892Z,70.29
2023-04-18T11:51:35.687Z,69.93
2023-04-18T11:52:38.463Z,69.59
2023-04-18T11:53:40.228Z,70.96
2023-04-18T11:54:44.134Z,71.96
2023-04-18T11:55:55.955Z,72.10
2023-04-18T11:56:57.847Z,71.83
2023-04-18T11:58:01.444Z,71.87
2023-04-18T11:59:09.803Z,72.63
2023-04-18T12:00:12.677Z,72.86
2023-04-18T12:01:21.253Z,72.33
2023-04-18T12:02:24.696Z,72.10
2023-04-18T12:03:29.282Z,72.37
2023-04-18T12:05:00.265Z,72.00
2023-04-18T12:06:02.548Z,71.75
2023-04-18T12:07:05.008Z,71.86
2023-04-18T12:08:17.387Z,70.81
2023-04-18T12:09:21.358Z,71.58
2023-04-18T12:10:24.511Z,71.71
2023-04-18T12:11:26.294Z,71.55
2023-04-18T12:12:28.031Z,71.75
2023-04-18T12:13:33.172Z,72.44
2023-04-18T12:14:36.024Z,72.34
2023-04-18T12:15:40.691Z,72.77
2023-04-18T12:16:42.428Z,72.62
2023-04-18T12:17:45.556Z,72.26
2023-04-18T12:18:49.444Z,72.75
2023-04-18T12:19:53.633Z,73.17
2023-04-18T12:20:55.406Z,73.56
2023-04-18T12:22:01.510Z,72.93
2023-04-18T12:23:03.789Z,72.87
2023-04-18T12:24:18.339Z,72.57
2023-04-18T12:25:27.552Z,72.39
2023-04-18T12:26:29.644Z,72.57
2023-04-18T12:28:01.371Z,72.20
2023-04-18T12:29:03.067Z,72.01
2023-04-18T12:30:05.189Z,71.98
2023-04-18T12:31:07.519Z,71.77
2023-04-18T12:32:09.329Z,71.51
2023-04-18T12:33:11.652Z,71.31
2023-04-18T12:34:16.210Z,71.74
2023-04-18T12:35:21.648Z,71.74
2023-04-18T12:36:23.594Z,72.17
2023-04-18T12:37:25.735Z,72.18
2023-04-18T12:38:27.684Z,72.02
2023-04-18T12:39:29.378Z,71.58
2023-04-18T12:40:31.222Z,71.82
2023-04-18T12:41:32.986Z,72.53
2023-04-18T12:42:34.712Z,71.95
2023-04-18T12:43:36.403Z,72.44
2023-04-18T12:44:38.080Z,72.20
2023-04-18T12:45:39.824Z,72.19
2023-04-18T12:46:41.648Z,72.36
2023-04-18T12:47:45.848Z,72.48
2023-04-18T12:48:47.630Z,72.31
2023-04-18T12:49:49.302Z,72.67
2023-04-18T12:50:51.091Z,72.48
2023-04-18T12:51:52.791Z,72.09
2023-04-18T12:52:55.751Z,71.79
2023-04-18T12:53:57.435Z,72.12
2023-04-18T12:54:59.258Z,71.91
2023-04-18T12:56:01.070Z,71.44
2023-04-18T12:57:03.400Z,71.83
2023-04-18T12:58:05.127Z,72.80
2023-04-18T12:59:06.845Z,74.59
2023-04-18T13:00:13.170Z,74.94
2023-04-18T13:01:15.602Z,75.59
2023-04-18T13:02:17.515Z,76.76
2023-04-18T13:03:19.506Z,76.85
2023-04-18T13:04:21.775Z,76.53
2023-04-18T13:05:27.311Z,76.04
2023-04-18T13:06:30.872Z,76.98
2023-04-18T13:07:33.161Z,77.42
2023-04-18T13:08:35.070Z,77.74
2023-04-18T13:09:36.791Z,78.32
2023-04-18T13:10:38.514Z,78.61
2023-04-18T13:11:40.327Z,78.89
2023-04-18T13:12:42.147Z,79.81
2023-04-18T13:13:43.833Z,79.75
2023-04-18T13:14:46.668Z,79.75
2023-04-18T13:15:48.431Z,79.79
2023-04-18T13:16:50.422Z,79.99
2023-04-18T13:17:52.110Z,80.29
2023-04-18T13:18:53.840Z,80.39
2023-04-18T13:19:56.817Z,80.67
2023-04-18T13:20:58.518Z,81.19
2023-04-18T13:22:01.338Z,81.95
2023-04-18T13:23:03.343Z,82.24
2023-04-18T13:24:05.463Z,82.87
2023-04-18T13:25:08.452Z,83.37
2023-04-18T13:26:11.872Z,84.18
2023-04-18T13:27:16.448Z,85.38
2023-04-18T13:28:18.138Z,85.89
2023-04-18T13:29:19.812Z,86.23
2023-04-18T13:30:21.545Z,86.46
2023-04-18T13:31:23.322Z,86.37
2023-04-18T13:32:25.893Z,86.10
2023-04-18T13:33:27.612Z,86.26
2023-04-18T13:34:29.698Z,86.38
2023-04-18T13:35:31.447Z,86.57